Clinton, California
Current Conditions -  °F | °C
As of 9:15 PM on Sunday 19 Oct 2014 (Local Time) from KPVF Reporting Station
Broken Clouds Broken Clouds  
Wind Chill: 63°   Ceiling: 3500
Heat Index: 63°   Visibility: 10mi
Dew Point: 39°   Wind: 0mph
Humidity: 42%   Direction: NA
Pressure: 29.95"   Gusts: NA
Location:  38.3424°N, 120.751°W
Report Text: KPVF 200415Z AUTO 00000KT 10SM BKN035 BKN041 BKN050 17/04 A2995 RMK AO1
Loading
Personal Weather Stations






























Interactive Weather Map
Tropical Storm Tracking
New forecast layout! Learn more

10-Day Weather Forecast

Advertisements
Track Severe Weather on mobile